Home | Races | Search | FAQ | Quotes | Link | Advertise | Split Second | NASTAR  
 

page: 1 2 3 4 5 6 7    Link to This RaceResults  
Marathon Class Resul¹
Marathon Overall Res¹
15k Results by Class¹
Sugarloaf Marathon/15k - Single Crs, Best
USA - ME - Sugarloaf, USA
5/16/2010 7:00 AM

15k Overall Results¹print

                                   Sugarloaf Marathon                             Page 1 
Kingfield, Maine May 16, 2010 
Timing and Results by All Sports Events 
www.allsportsevents.com 
Overall Results 
Time 
Pl Bib Name City St Class Total Back 
======================================================================================== 
1 604 Carry Buterbaugh south portland ME Women 35-39 59:05.5 12:53 
2 693 Jeanne Hackett Scarborough ME Women 50-54 1:01:38.0 15:25 
3 443 Heidi Nadeau North Hampton NH Women 20-24 1:01:45.1 15:32 
4 549 Patty Blanchard Dieppe NB Women 50-54 1:04:06.8 17:54 
5 646 Heather Russo-LittlefiBlock Island RI Women 35-39 1:04:16.6 18:04 
6 747 Kathleen Bell Orono ME Women 40-44 1:04:52.1 18:39 
7 572 Sarah Doscinski Temple ME Women 30-34 1:07:00.2 20:48 
8 698 Margaret Capehart BAngor ME Women 30-34 1:07:19.1 21:06 
9 664 Katrina Bisheimer Bucksport ME Women 40-44 1:07:34.4 21:22 
10 505 Leila Percy Rockland ME Women 25-29 1:08:06.1 21:53 
11 537 Caitlin Miller Pepperell MA Women 19 and Under 1:08:31.1 22:18 
12 414 Michelle Roy Caribou ME Women 30-34 1:08:49.6 22:37 
13 566 Kristin Chambers Bethel ME Women 20-24 1:09:19.4 23:07 
14 620 Robin Carlson South Portland ME Women 35-39 1:09:22.3 23:10 
15 628 Julie Brown Millinocket ME Women 55-59 1:09:39.9 23:27 
16 411 Maureen Sproul New Gloucester ME Women 50-54 1:10:08.8 23:56 
17 423 Kristina Langdon Shamong NJ Women 35-39 1:10:16.7 24:04 
18 694 Yvette Scattolon Halifax NS Women 40-44 1:11:00.7 24:48 
19 510 REBEKAH PICKERING SEDGWICK ME Women 30-34 1:11:45.3 25:33 
20 507 Katie Snow Brewer ME Women 19 and Under 1:11:49.0 25:36 
21 638 Julie Millard Albion ME Women 45-49 1:11:59.9 25:47 
22 727 Steph Navrat Portland ME Women 20-24 1:12:06.3 25:54 
23 417 Amanda Vigue cumberland ME Women 25-29 1:12:06.5 25:54 
24 695 Lisa Cicchelli Halifax NS Women 40-44 1:12:36.3 26:24 
25 639 Sarah Reynolds Farmington ME Women 30-34 1:12:57.9 26:45 
26 511 Kimberly Tibbetts Standish ME Women 35-39 1:13:18.5 27:06 
27 616 Marie-Andree Labrie Mascouche QC Women 25-29 1:13:22.2 27:10 
28 429 Annette Gibbs Jackman ME Women 40-44 1:13:25.5 27:13 
29 669 Tonya Pickering Orono ME Women 30-34 1:13:26.8 27:14 
30 542 Alice French Jackman ME Women 35-39 1:13:40.4 27:28 
31 700 Julianne Shaw Bangor ME Women 25-29 1:14:10.0 27:57 
32 751 Kathryn Dewar North New Port ME Women 30-34 1:14:28.1 28:15 
33 697 Ciona Ulbrich Blue Hill ME Women 35-39 1:15:13.3 29:01 
34 441 Teri Muse Benton ME Women 40-44 1:15:55.1 29:42 
35 548 Megan Tylka Lewiston ME Women 25-29 1:16:26.4 30:14 
36 660 Jillian Wanik New Britain CT Women 45-49 1:16:43.2 30:31 
37 593 Julie French Presque Isle ME Women 40-44 1:16:46.7 30:34 
38 605 KATRINA MAZGAJ ELLSWORTH ME Women 35-39 1:16:47.7 30:35 
39 690 Maggie Jones Stonington CT Women 50-54 1:16:50.5 30:38 
40 735 Leah Turner UNKNOWN 1:17:10.8 30:58 
41 434 Lindsey Welch Gorham ME Women 25-29 1:17:17.3 31:05 
42 588 Janet Crowe Steamboat Spri CO Women 50-54 1:17:42.0 31:29 
43 754 Abbey McCarthy Orono ME Women 25-29 1:17:47.5 31:35 
45 440 Christine Knudsen Falmouth ME Women 25-29 1:18:17.4 32:05 
44 679 Julia Daly Farmington ME Women 35-39 1:18:17.0 32:04 
46 631 Amy Hediger Poland ME Women 30-34 1:18:27.4 32:15 
47 719 Robin Ray Portland ME Women 40-44 1:19:14.8 33:02 
48 662 Tracey Thornton Gardiner ME Women 30-34 1:19:24.5 33:12 
49 401 Crystal Brown Gray ME Women 35-39 1:19:29.7 33:17 
50 606 Kelly Elston Windham ME Women 30-34 1:19:31.0 33:18 
51 640 Terry Cockburn Durham ME Women 35-39 1:20:02.4 33:50 
52 678 Anne-Marie Perry Etna ME Women 20-24 1:20:05.2 33:53 
 
______________________________________________________________________________________ 
 
Ski Club Software from www.SplitSecond.com 5/16/2010 10:26:53 AM 

page: 1 2 3 4 5 6 7             ¹ attached report
Widgets    Upload/View Logos
All results are 'unofficial'     Copyright © 2016 Split Second Sports Timing, Inc., All rights reserved